Time;durP1;ratioP1;P1;durP2;ratioP2;P2;SDS_P1;SDS_P2;PMS_P1;PMS_P2;Temp;Humidity;BMP_temperature;BMP_pressure;BME280_temperature;BME280_humidity;BME280_pressure;Samples;Min_cycle;Max_cycle;Signal;HPM_P1;HPM_P2
2023/02/03 00:01:30;;;;;;;23.30;5.15;;;9.70;99.90;;;;;;5047678;28;20478;-74
2023/02/03 00:03:55;;;;;;;14.13;5.35;;;9.70;99.90;;;;;;5047307;28;20021;-73
2023/02/03 00:06:21;;;;;;;18.33;5.13;;;9.70;99.90;;;;;;5047877;28;20037;-73
2023/02/03 00:08:48;;;;;;;16.83;4.47;;;9.70;99.90;;;;;;5047099;28;20435;-74
2023/02/03 00:11:13;;;;;;;16.40;4.20;;;9.70;99.90;;;;;;5047794;28;20031;-74
2023/02/03 00:13:40;;;;;;;21.13;4.63;;;9.70;99.90;;;;;;5046022;28;20021;-73
2023/02/03 00:16:06;;;;;;;19.17;4.68;;;9.70;99.90;;;;;;5046077;28;20041;-73
2023/02/03 00:18:32;;;;;;;16.45;5.45;;;9.80;99.90;;;;;;5046454;28;20032;-74
2023/02/03 00:20:58;;;;;;;15.25;4.18;;;9.70;99.90;;;;;;5047143;28;20712;-74
2023/02/03 00:23:24;;;;;;;20.55;4.07;;;9.80;99.90;;;;;;5046023;28;20037;-75
2023/02/03 00:25:51;;;;;;;14.38;3.58;;;9.70;99.90;;;;;;5047223;28;20033;-74
2023/02/03 00:28:16;;;;;;;15.73;4.82;;;9.80;99.90;;;;;;5059220;28;20105;-75
2023/02/03 00:30:42;;;;;;;14.98;3.97;;;9.70;99.90;;;;;;5045716;28;20479;-74
2023/02/03 00:33:08;;;;;;;13.75;3.25;;;9.80;99.90;;;;;;5047312;28;20033;-74
2023/02/03 00:35:38;;;;;;;18.15;4.50;;;9.80;99.90;;;;;;5047953;28;20127;-74
2023/02/03 00:38:03;;;;;;;17.42;3.83;;;9.70;99.90;;;;;;5050304;28;20029;-75
2023/02/03 00:40:30;;;;;;;11.98;3.10;;;9.70;99.90;;;;;;5050362;28;20032;-73
2023/02/03 00:42:56;;;;;;;21.05;4.30;;;9.80;99.90;;;;;;5051012;28;20510;-73
2023/02/03 00:45:21;;;;;;;18.48;3.75;;;9.80;99.90;;;;;;5050321;28;20136;-74
2023/02/03 00:47:47;;;;;;;18.25;5.10;;;9.90;99.90;;;;;;5049832;28;20052;-74
2023/02/03 00:50:13;;;;;;;20.20;5.13;;;9.80;99.90;;;;;;5050412;28;20032;-74
2023/02/03 00:52:39;;;;;;;12.95;4.32;;;9.90;99.90;;;;;;5050226;28;20017;-75
2023/02/03 00:55:05;;;;;;;17.88;4.45;;;9.80;99.90;;;;;;5050233;28;20554;-73
2023/02/03 00:57:31;;;;;;;16.52;3.35;;;9.80;99.90;;;;;;5049129;28;20039;-74
2023/02/03 00:59:57;;;;;;;16.85;3.92;;;9.90;99.90;;;;;;5050511;28;20075;-74
2023/02/03 01:02:23;;;;;;;23.35;4.57;;;9.90;99.90;;;;;;5049179;28;20059;-74
2023/02/03 01:04:48;;;;;;;19.67;4.53;;;9.90;99.80;;;;;;5049969;28;20025;-75
2023/02/03 01:07:14;;;;;;;23.55;5.00;;;9.80;99.80;;;;;;5049727;28;20027;-76
2023/02/03 01:09:41;;;;;;;19.38;4.32;;;9.90;99.80;;;;;;5050167;28;20155;-75
2023/02/03 01:12:07;;;;;;;16.23;3.85;;;9.90;99.80;;;;;;5049155;28;20401;-74
2023/02/03 01:14:33;;;;;;;11.18;3.60;;;9.90;99.70;;;;;;5050460;28;20033;-74
2023/02/03 01:16:59;;;;;;;19.50;4.72;;;9.90;99.70;;;;;;5047250;28;20918;-74
2023/02/03 01:19:25;;;;;;;16.83;4.00;;;9.90;99.70;;;;;;5029664;28;20041;-74
2023/02/03 01:21:50;;;;;;;19.38;5.78;;;9.80;99.60;;;;;;5045257;28;20422;-74
2023/02/03 01:24:17;;;;;;;20.70;4.72;;;9.90;99.50;;;;;;5050099;28;20370;-74
2023/02/03 01:26:43;;;;;;;15.68;3.75;;;9.90;99.60;;;;;;5049429;28;20568;-74
2023/02/03 01:29:10;;;;;;;15.77;4.22;;;9.90;99.50;;;;;;5053153;28;20569;-75
2023/02/03 01:31:38;;;;;;;16.35;4.30;;;9.90;99.50;;;;;;5049711;28;20100;-74
2023/02/03 01:34:05;;;;;;;13.77;3.15;;;10.00;99.30;;;;;;5049829;28;20024;-75
2023/02/03 01:36:32;;;;;;;12.05;3.20;;;10.00;99.20;;;;;;5049136;28;20025;-74
2023/02/03 01:38:59;;;;;;;15.85;3.65;;;10.00;99.30;;;;;;5049656;28;20039;-74
2023/02/03 01:41:35;;;;;;;19.98;4.40;;;10.00;99.30;;;;;;5049478;28;20032;-74
2023/02/03 01:44:37;;;;;;;16.33;4.82;;;10.00;99.20;;;;;;5049532;28;20033;-76
2023/02/03 01:47:09;;;;;;;17.15;3.72;;;10.00;99.10;;;;;;5049184;28;20040;-74
2023/02/03 01:49:36;;;;;;;13.98;4.05;;;10.00;99.10;;;;;;5049494;28;20025;-75
2023/02/03 01:52:03;;;;;;;17.55;4.47;;;9.90;99.20;;;;;;5049267;28;20027;-75
2023/02/03 01:54:33;;;;;;;10.55;3.35;;;10.00;99.40;;;;;;5049412;28;20028;-74
2023/02/03 01:57:09;;;;;;;12.13;4.10;;;9.90;99.10;;;;;;5048457;28;20021;-75
2023/02/03 01:59:36;;;;;;;24.70;5.30;;;9.90;99.20;;;;;;5048642;28;20475;-73
2023/02/03 02:02:03;;;;;;;16.23;4.93;;;9.90;99.10;;;;;;5049179;28;20474;-74
2023/02/03 02:04:54;;;;;;;13.00;3.72;;;10.00;99.10;;;;;;5049166;28;20483;-75
2023/02/03 02:07:19;;;;;;;19.35;4.47;;;9.90;99.00;;;;;;5047372;28;20487;-74
2023/02/03 02:09:46;;;;;;;14.40;3.63;;;9.90;99.10;;;;;;5048777;28;20029;-75
2023/02/03 02:12:11;;;;;;;16.67;4.22;;;9.90;99.20;;;;;;5048880;28;20021;-73
2023/02/03 02:14:38;;;;;;;13.77;3.85;;;9.90;99.10;;;;;;5048534;28;20055;-74
2023/02/03 02:17:24;;;;;;;14.05;3.42;;;9.90;99.10;;;;;;5048355;28;20501;-74
2023/02/03 02:20:04;;;;;;;16.13;3.47;;;9.90;99.20;;;;;;5049320;28;20025;-74
2023/02/03 02:23:12;;;;;;;16.75;4.43;;;9.80;99.20;;;;;;5048158;28;20033;-74
2023/02/03 02:25:41;;;;;;;14.45;3.10;;;9.90;99.20;;;;;;5041016;28;20094;-74
2023/02/03 02:28:30;;;;;;;14.05;3.60;;;9.90;99.10;;;;;;5048478;28;20028;-74
2023/02/03 02:31:20;;;;;;;12.07;3.25;;;9.90;99.10;;;;;;5048103;28;20387;-74
2023/02/03 02:33:51;;;;;;;14.77;3.65;;;9.90;99.20;;;;;;5046301;28;20031;-74
2023/02/03 02:36:34;;;;;;;22.33;4.35;;;9.80;99.20;;;;;;5048416;28;20029;-74
2023/02/03 02:39:07;;;;;;;14.63;3.45;;;9.80;99.20;;;;;;5048388;28;20032;-71
2023/02/03 02:41:36;;;;;;;13.25;3.17;;;9.90;99.10;;;;;;5047934;28;20028;-74
2023/02/03 02:44:11;;;;;;;12.88;3.08;;;9.90;99.10;;;;;;5048179;28;20028;-75
2023/02/03 02:46:49;;;;;;;16.40;4.30;;;9.90;99.00;;;;;;5048293;28;20112;-74
2023/02/03 02:49:18;;;;;;;19.02;3.67;;;9.90;99.00;;;;;;5047710;28;20483;-74
2023/02/03 02:51:47;;;;;;;14.10;3.15;;;9.90;98.80;;;;;;5048500;28;20108;-74
2023/02/03 02:54:17;;;;;;;15.45;3.63;;;9.90;98.70;;;;;;5047859;28;20510;-73
2023/02/03 02:56:47;;;;;;;11.13;2.63;;;9.90;98.50;;;;;;5048099;28;20116;-74
2023/02/03 02:59:13;;;;;;;13.43;3.28;;;10.00;98.50;;;;;;5046925;28;20029;-74
2023/02/03 03:01:40;;;;;;;12.60;3.08;;;10.00;98.40;;;;;;5048012;28;20387;-74
2023/02/03 03:04:08;;;;;;;15.18;2.88;;;9.90;98.20;;;;;;5047988;28;20024;-74
2023/02/03 03:06:42;;;;;;;14.45;2.90;;;10.00;98.10;;;;;;5048333;28;20040;-75
2023/02/03 03:09:28;;;;;;;17.10;3.97;;;10.00;98.00;;;;;;5047834;28;20048;-74
2023/02/03 03:12:01;;;;;;;16.23;3.05;;;10.00;98.00;;;;;;5038185;28;20033;-74
2023/02/03 03:14:31;;;;;;;12.13;3.20;;;10.00;98.10;;;;;;5047593;28;20043;-75
2023/02/03 03:17:05;;;;;;;14.02;5.10;;;10.10;98.00;;;;;;5048110;28;20044;-74
2023/02/03 03:19:38;;;;;;;15.85;3.08;;;10.00;98.00;;;;;;5047742;28;20027;-74
2023/02/03 03:22:06;;;;;;;17.42;4.15;;;10.10;98.00;;;;;;5037195;28;20021;-75
2023/02/03 03:24:58;;;;;;;23.95;4.15;;;10.10;97.90;;;;;;5047245;28;20028;-74
2023/02/03 03:27:32;;;;;;;23.27;5.32;;;10.10;97.90;;;;;;5036955;28;20053;-74
2023/02/03 03:30:07;;;;;;;13.73;3.13;;;10.10;97.90;;;;;;5046384;28;20372;-74
2023/02/03 03:32:34;;;;;;;14.23;2.60;;;10.00;97.90;;;;;;5047243;28;20088;-74
2023/02/03 03:35:01;;;;;;;13.93;4.45;;;10.00;97.70;;;;;;5047612;28;20036;-75
2023/02/03 03:37:48;;;;;;;13.73;3.25;;;10.10;98.00;;;;;;5045994;28;20037;-75
2023/02/03 03:40:35;;;;;;;15.07;3.80;;;10.10;98.10;;;;;;5046143;28;20330;-75
2023/02/03 03:43:15;;;;;;;14.13;3.97;;;10.10;98.00;;;;;;5039008;28;20036;-75
2023/02/03 03:45:54;;;;;;;16.40;4.95;;;10.10;97.90;;;;;;5047785;28;20034;-74
2023/02/03 03:48:47;;;;;;;14.15;3.95;;;10.10;97.90;;;;;;5046815;28;20025;-75
2023/02/03 03:51:40;;;;;;;13.43;3.53;;;10.10;97.90;;;;;;5047720;28;20032;-74
2023/02/03 03:54:13;;;;;;;8.43;2.70;;;10.10;98.00;;;;;;5047349;28;20033;-75
2023/02/03 03:56:50;;;;;;;14.02;3.17;;;10.00;98.10;;;;;;5046828;28;20735;-74
2023/02/03 03:59:20;;;;;;;18.75;3.67;;;10.00;98.00;;;;;;5046178;28;20017;-74
2023/02/03 04:01:48;;;;;;;13.57;3.80;;;10.10;98.00;;;;;;5047030;28;20013;-75
2023/02/03 04:04:15;;;;;;;17.45;4.10;;;10.10;97.90;;;;;;5047556;28;20028;-74
2023/02/03 04:06:41;;;;;;;17.33;3.00;;;10.10;98.00;;;;;;5047126;28;20021;-75
2023/02/03 04:09:06;;;;;;;13.13;3.58;;;10.10;98.00;;;;;;5045887;28;20402;-74
2023/02/03 04:14:17;;;;;;;16.88;3.38;;;10.00;98.00;;;;;;5044343;28;20044;-74
2023/02/03 04:16:42;;;;;;;13.93;3.58;;;10.10;98.00;;;;;;5051184;28;20021;-74
2023/02/03 04:19:08;;;;;;;14.85;4.30;;;10.10;97.90;;;;;;5051608;28;20029;-75
2023/02/03 04:21:34;;;;;;;14.20;2.95;;;10.20;97.90;;;;;;5049898;28;20025;-74
2023/02/03 04:23:59;;;;;;;15.77;4.30;;;10.20;97.90;;;;;;5050833;28;20642;-74
2023/02/03 04:26:25;;;;;;;13.18;4.25;;;10.10;97.90;;;;;;5050915;28;20135;-74
2023/02/03 04:28:51;;;;;;;11.88;2.92;;;10.10;98.10;;;;;;5051087;28;20466;-73
2023/02/03 04:31:16;;;;;;;8.60;2.70;;;10.10;98.00;;;;;;5051035;28;20386;-75
2023/02/03 04:33:42;;;;;;;22.00;4.03;;;10.20;97.90;;;;;;5050389;28;20052;-75
2023/02/03 04:36:08;;;;;;;16.77;2.90;;;10.10;97.90;;;;;;5050704;28;20037;-75
2023/02/03 04:38:34;;;;;;;10.85;2.45;;;10.20;97.90;;;;;;5050051;28;20820;-75
2023/02/03 04:41:01;;;;;;;15.52;3.35;;;10.20;97.90;;;;;;5050596;28;20032;-75
2023/02/03 04:43:26;;;;;;;13.43;3.42;;;10.20;98.00;;;;;;5050377;28;20032;-74
2023/02/03 04:45:52;;;;;;;12.88;2.95;;;10.10;97.90;;;;;;5050492;28;20033;-74
2023/02/03 04:48:18;;;;;;;10.50;2.83;;;10.10;98.00;;;;;;5050149;28;20506;-74
2023/02/03 04:50:43;;;;;;;11.10;3.15;;;10.10;98.00;;;;;;5050262;28;20025;-75
2023/02/03 04:53:10;;;;;;;11.82;2.42;;;10.10;98.00;;;;;;5050416;28;20017;-75
2023/02/03 04:55:36;;;;;;;11.40;3.20;;;10.10;97.90;;;;;;5049952;28;20031;-76
2023/02/03 04:58:01;;;;;;;12.18;2.78;;;10.10;97.90;;;;;;5054044;28;20304;-76
2023/02/03 05:00:28;;;;;;;14.20;3.35;;;10.10;98.00;;;;;;5053587;28;20075;-75
2023/02/03 05:02:54;;;;;;;17.83;3.50;;;10.10;97.90;;;;;;5058525;28;20036;-76
2023/02/03 05:05:20;;;;;;;15.00;3.30;;;10.10;97.80;;;;;;5057854;28;20467;-75
2023/02/03 05:07:46;;;;;;;10.85;2.80;;;10.20;97.80;;;;;;5058479;28;20024;-75
2023/02/03 05:10:11;;;;;;;16.10;3.95;;;10.20;97.70;;;;;;5056009;28;20017;-74
2023/02/03 05:12:39;;;;;;;12.07;2.60;;;10.20;97.80;;;;;;5056212;28;20024;-76
2023/02/03 05:15:05;;;;;;;14.50;2.97;;;10.10;97.70;;;;;;5058758;28;20043;-76
2023/02/03 05:17:31;;;;;;;10.80;2.70;;;10.10;97.80;;;;;;5059697;28;20044;-76
2023/02/03 05:19:56;;;;;;;10.15;2.30;;;10.20;97.70;;;;;;5057106;28;20029;-77
2023/02/03 05:22:23;;;;;;;12.48;3.42;;;10.20;97.70;;;;;;5055979;28;20627;-75
2023/02/03 05:24:49;;;;;;;14.75;3.38;;;10.20;97.70;;;;;;5057526;28;20406;-76
2023/02/03 05:27:14;;;;;;;9.32;2.83;;;10.20;97.90;;;;;;5055853;28;20044;-75
2023/02/03 05:29:40;;;;;;;11.65;2.83;;;10.30;97.60;;;;;;5052672;28;20136;-75
2023/02/03 05:32:05;;;;;;;10.52;2.97;;;10.20;97.50;;;;;;5052908;28;20036;-76
2023/02/03 05:34:31;;;;;;;14.70;3.67;;;10.30;97.60;;;;;;5052080;28;20021;-75
2023/02/03 05:36:57;;;;;;;10.20;3.13;;;10.30;97.60;;;;;;5052274;28;20037;-75
2023/02/03 05:39:23;;;;;;;17.88;3.40;;;10.30;97.60;;;;;;5049865;28;20100;-74
2023/02/03 05:41:51;;;;;;;16.00;3.60;;;10.30;97.60;;;;;;5051551;28;20104;-75
2023/02/03 05:44:17;;;;;;;15.38;3.33;;;10.20;97.70;;;;;;5051263;28;20554;-76
2023/02/03 05:46:43;;;;;;;13.98;3.35;;;10.30;97.70;;;;;;5049993;28;20502;-74
2023/02/03 05:49:09;;;;;;;10.68;2.97;;;10.20;97.70;;;;;;5051605;28;20028;-76
2023/02/03 05:51:35;;;;;;;14.40;3.00;;;10.20;97.70;;;;;;5050686;28;20398;-75
2023/02/03 05:54:00;;;;;;;19.67;3.03;;;10.30;97.70;;;;;;5050458;28;20017;-76
2023/02/03 05:56:26;;;;;;;14.45;3.22;;;10.20;97.70;;;;;;5048919;28;20045;-75
2023/02/03 05:58:53;;;;;;;14.82;3.13;;;10.20;97.70;;;;;;5051215;28;20040;-76
2023/02/03 06:01:19;;;;;;;14.10;3.00;;;10.20;97.60;;;;;;5050147;28;20025;-75
2023/02/03 06:03:46;;;;;;;15.02;2.67;;;10.20;97.70;;;;;;5050252;28;20470;-75
2023/02/03 06:06:12;;;;;;;15.00;2.80;;;10.20;97.80;;;;;;5050867;28;20028;-76
2023/02/03 06:08:38;;;;;;;16.58;3.55;;;10.10;97.90;;;;;;5051878;28;20490;-76
2023/02/03 06:11:04;;;;;;;15.48;3.28;;;10.20;97.80;;;;;;5050203;28;20028;-75
2023/02/03 06:13:29;;;;;;;15.88;4.05;;;10.10;97.80;;;;;;5050918;28;20446;-75
2023/02/03 06:15:57;;;;;;;14.00;2.60;;;10.10;98.00;;;;;;5049870;28;20021;-74
2023/02/03 06:18:23;;;;;;;15.02;3.35;;;10.10;98.00;;;;;;5050935;28;20033;-75
2023/02/03 06:20:49;;;;;;;16.85;4.18;;;10.00;98.00;;;;;;5050448;28;20024;-76
2023/02/03 06:23:17;;;;;;;15.75;3.00;;;10.10;98.00;;;;;;5051378;28;20724;-74
2023/02/03 06:25:44;;;;;;;16.40;2.85;;;10.10;97.90;;;;;;5050819;28;20051;-75
2023/02/03 06:28:09;;;;;;;10.38;2.58;;;10.10;97.90;;;;;;5051332;28;20017;-75
2023/02/03 06:30:36;;;;;;;17.00;4.32;;;10.20;97.80;;;;;;5052386;28;20048;-76
2023/02/03 06:33:02;;;;;;;11.82;3.38;;;10.20;97.80;;;;;;5050639;28;20025;-75
2023/02/03 06:35:27;;;;;;;10.65;3.17;;;10.10;97.80;;;;;;5052724;28;20055;-75
2023/02/03 06:37:53;;;;;;;15.27;3.95;;;10.20;97.90;;;;;;5055571;28;20036;-76
2023/02/03 06:40:19;;;;;;;12.68;2.75;;;10.10;97.90;;;;;;5055348;28;20021;-74
2023/02/03 06:42:48;;;;;;;20.42;3.53;;;10.10;98.00;;;;;;5049584;28;20119;-76
2023/02/03 06:45:14;;;;;;;19.05;3.42;;;10.10;97.90;;;;;;5051960;28;20025;-75
2023/02/03 06:47:44;;;;;;;7.45;2.25;;;10.10;98.00;;;;;;5049701;28;20029;-75
2023/02/03 06:50:13;;;;;;;16.48;3.90;;;10.10;98.10;;;;;;5051119;28;20186;-76
2023/02/03 06:52:38;;;;;;;14.25;3.47;;;10.10;98.10;;;;;;5049572;28;20382;-76
2023/02/03 06:55:05;;;;;;;17.30;3.33;;;10.10;98.00;;;;;;5049786;28;20461;-76
2023/02/03 06:57:31;;;;;;;21.80;4.32;;;10.10;98.00;;;;;;5049716;28;21400;-74
2023/02/03 06:59:57;;;;;;;10.98;2.50;;;10.10;98.00;;;;;;5047747;28;20049;-75
2023/02/03 07:02:22;;;;;;;13.73;3.33;;;10.10;98.00;;;;;;5050175;28;20056;-75
2023/02/03 07:04:48;;;;;;;8.93;2.40;;;10.20;98.00;;;;;;5048765;28;20021;-76
2023/02/03 07:07:14;;;;;;;13.70;3.17;;;10.10;97.90;;;;;;5051405;28;20021;-76
2023/02/03 07:09:40;;;;;;;12.52;3.22;;;10.10;98.00;;;;;;5051725;28;20033;-76
2023/02/03 07:12:07;;;;;;;15.65;3.75;;;10.20;97.90;;;;;;5051860;28;20485;-75
2023/02/03 07:14:34;;;;;;;13.02;2.95;;;10.10;98.00;;;;;;5049324;28;20063;-76
2023/02/03 07:17:04;;;;;;;17.65;3.70;;;10.00;98.10;;;;;;5048282;28;20029;-76
2023/02/03 07:19:29;;;;;;;13.32;3.42;;;10.10;98.10;;;;;;5048435;28;20392;-75
2023/02/03 07:21:55;;;;;;;14.40;3.03;;;10.10;98.00;;;;;;5045784;28;20017;-75
2023/02/03 07:24:23;;;;;;;11.93;2.33;;;10.10;97.90;;;;;;5048999;28;20057;-74
2023/02/03 07:26:49;;;;;;;15.65;3.80;;;10.20;97.80;;;;;;5052962;28;20154;-76
2023/02/03 07:29:15;;;;;;;13.48;3.03;;;10.10;98.10;;;;;;5054859;28;20024;-74
2023/02/03 07:31:40;;;;;;;15.85;3.28;;;10.10;98.10;;;;;;5054342;28;20013;-76
2023/02/03 07:34:06;;;;;;;16.45;3.17;;;10.10;98.10;;;;;;5053964;28;20052;-76
2023/02/03 07:36:35;;;;;;;21.13;3.25;;;10.10;98.10;;;;;;5057353;28;20039;-77
2023/02/03 07:39:01;;;;;;;18.17;4.07;;;10.10;98.10;;;;;;5053339;28;20612;-76
2023/02/03 07:41:26;;;;;;;9.32;2.33;;;10.10;98.10;;;;;;5052715;28;20657;-75
2023/02/03 07:43:52;;;;;;;15.60;3.40;;;10.20;98.00;;;;;;5053229;28;20082;-75
2023/02/03 07:46:18;;;;;;;13.88;2.85;;;10.20;98.10;;;;;;5047294;28;20078;-76
2023/02/03 07:48:44;;;;;;;19.92;4.18;;;10.20;98.10;;;;;;5044790;28;20013;-74
2023/02/03 07:51:10;;;;;;;17.98;2.97;;;10.20;98.20;;;;;;5052476;28;20078;-73
2023/02/03 07:53:35;;;;;;;18.05;3.78;;;10.10;98.20;;;;;;5051530;28;20032;-74
2023/02/03 07:56:03;;;;;;;13.20;2.92;;;10.10;98.30;;;;;;5052664;28;20017;-74
2023/02/03 07:58:29;;;;;;;14.32;3.25;;;10.10;98.30;;;;;;5052381;28;20025;-74
2023/02/03 08:00:55;;;;;;;13.32;3.80;;;10.10;98.40;;;;;;5051486;28;20113;-74
2023/02/03 08:03:21;;;;;;;16.05;3.53;;;10.10;98.30;;;;;;5047885;28;20845;-74
2023/02/03 08:05:47;;;;;;;11.98;4.80;;;10.10;98.30;;;;;;5052661;28;20020;-74
2023/02/03 08:08:13;;;;;;;16.30;3.65;;;10.10;98.30;;;;;;5047565;28;20025;-73
2023/02/03 08:10:39;;;;;;;14.85;3.15;;;10.20;98.30;;;;;;5052662;28;20032;-74
2023/02/03 08:13:05;;;;;;;17.85;3.80;;;10.10;98.30;;;;;;5051362;28;20056;-74
2023/02/03 08:15:31;;;;;;;11.23;3.13;;;10.20;98.30;;;;;;5053281;28;20025;-74
2023/02/03 08:17:58;;;;;;;15.13;3.80;;;10.20;98.30;;;;;;5053968;28;20040;-75
2023/02/03 08:20:24;;;;;;;14.60;4.18;;;10.10;98.30;;;;;;5053006;28;20026;-73
2023/02/03 08:22:51;;;;;;;13.15;2.90;;;10.20;98.30;;;;;;5053498;28;20028;-75
2023/02/03 08:25:17;;;;;;;15.68;3.38;;;10.20;98.30;;;;;;5054017;28;20037;-74
2023/02/03 08:27:43;;;;;;;19.48;4.72;;;10.20;98.30;;;;;;5044579;28;20156;-74
2023/02/03 08:30:12;;;;;;;17.30;3.95;;;10.20;98.30;;;;;;5049629;28;20028;-74
2023/02/03 08:32:38;;;;;;;15.57;4.10;;;10.20;98.30;;;;;;5031266;28;20116;-73
2023/02/03 08:35:05;;;;;;;14.43;3.40;;;10.30;98.20;;;;;;5047047;28;20506;-75
2023/02/03 08:37:31;;;;;;;13.30;3.22;;;10.30;98.20;;;;;;5050480;28;20036;-74
2023/02/03 08:39:58;;;;;;;10.73;2.67;;;10.30;98.20;;;;;;5051330;28;20017;-74
2023/02/03 08:42:23;;;;;;;13.38;3.85;;;10.40;98.00;;;;;;5051720;28;20025;-75
2023/02/03 08:44:49;;;;;;;15.32;3.58;;;10.40;98.00;;;;;;5052985;28;20036;-75
2023/02/03 08:47:15;;;;;;;15.80;3.65;;;10.40;97.90;;;;;;5052938;28;20025;-74
2023/02/03 08:49:41;;;;;;;13.85;3.25;;;10.50;97.90;;;;;;5053135;28;20032;-74
2023/02/03 08:52:10;;;;;;;13.82;3.40;;;10.50;97.80;;;;;;5050440;28;20024;-74
2023/02/03 08:54:36;;;;;;;13.77;2.53;;;10.60;97.80;;;;;;5046454;28;20032;-74
2023/02/03 08:57:02;;;;;;;16.75;4.10;;;10.60;97.80;;;;;;5063380;28;20116;-73
2023/02/03 08:59:29;;;;;;;23.92;5.60;;;10.70;97.60;;;;;;5057662;28;20112;-75
2023/02/03 09:01:55;;;;;;;15.60;3.45;;;10.70;97.60;;;;;;5056524;28;20025;-75
2023/02/03 09:04:24;;;;;;;19.60;6.00;;;10.70;97.50;;;;;;5061941;28;20024;-75
2023/02/03 09:06:53;;;;;;;19.17;3.87;;;10.70;97.50;;;;;;5057215;28;20421;-74
2023/02/03 09:09:19;;;;;;;13.75;3.50;;;10.70;97.50;;;;;;5047653;28;20022;-75
2023/02/03 09:11:46;;;;;;;12.40;3.10;;;10.70;97.50;;;;;;5045412;28;20056;-75
2023/02/03 09:14:12;;;;;;;18.20;3.28;;;10.70;97.50;;;;;;5037753;28;20028;-73
2023/02/03 09:16:37;;;;;;;17.70;3.95;;;10.70;97.60;;;;;;5051830;28;20037;-75
2023/02/03 09:19:04;;;;;;;14.25;4.32;;;10.70;97.60;;;;;;5051787;28;20471;-75
2023/02/03 09:21:29;;;;;;;12.48;4.28;;;10.80;97.50;;;;;;5054067;28;20537;-75
2023/02/03 09:24:01;;;;;;;10.40;2.45;;;10.80;97.40;;;;;;5046518;28;20017;-75
2023/02/03 09:26:27;;;;;;;12.85;3.03;;;10.80;97.40;;;;;;5052786;28;20457;-75
2023/02/03 09:28:53;;;;;;;16.77;2.92;;;10.90;97.40;;;;;;5051564;28;20033;-76
2023/02/03 09:31:19;;;;;;;16.35;3.17;;;10.90;97.30;;;;;;5054155;28;20083;-75
2023/02/03 09:33:45;;;;;;;12.82;3.35;;;11.00;97.20;;;;;;5053218;28;20024;-76
2023/02/03 09:36:12;;;;;;;16.52;2.80;;;11.00;97.20;;;;;;5050964;28;20024;-75
2023/02/03 09:38:38;;;;;;;9.95;3.20;;;10.90;97.30;;;;;;5053963;28;20039;-74
2023/02/03 09:41:11;;;;;;;10.30;3.22;;;10.90;97.40;;;;;;5054872;28;20025;-76
2023/02/03 09:43:45;;;;;;;10.70;3.03;;;11.00;97.20;;;;;;5050784;28;20017;-76
2023/02/03 09:46:18;;;;;;;15.02;3.47;;;11.10;97.00;;;;;;5047029;28;20112;-77
2023/02/03 09:48:53;;;;;;;13.23;3.70;;;11.10;97.00;;;;;;5040862;28;20459;-76
2023/02/03 09:51:23;;;;;;;18.15;3.45;;;11.10;97.00;;;;;;5050331;28;20021;-75
2023/02/03 09:54:02;;;;;;;;;;;11.10;97.00;;;;;;5046977;28;20039;-76
2023/02/03 09:56:32;;;;;;;11.70;3.75;;;11.10;97.00;;;;;;5048318;28;20275;-78
2023/02/03 09:58:58;;;;;;;14.10;3.60;;;11.10;97.10;;;;;;5051967;28;20017;-77
2023/02/03 10:01:47;;;;;;;10.98;2.95;;;11.00;97.00;;;;;;5050268;28;20076;-76
2023/02/03 10:04:29;;;;;;;12.45;3.40;;;11.10;97.00;;;;;;5045488;28;20032;-76
2023/02/03 10:07:06;;;;;;;13.40;2.97;;;11.10;97.00;;;;;;5058154;28;20034;-77
2023/02/03 10:09:41;;;;;;;8.38;3.10;;;11.20;97.10;;;;;;5046917;28;20100;-76
2023/02/03 10:12:43;;;;;;;17.33;3.28;;;11.20;96.90;;;;;;5054285;28;20017;-77
2023/02/03 10:15:33;;;;;;;11.70;2.50;;;11.20;96.90;;;;;;5048234;28;20104;-77
2023/02/03 10:18:03;;;;;;;;;;;11.20;96.90;;;;;;5045835;28;20041;-79
2023/02/03 10:20:38;;;;;;;28.02;14.70;;;11.30;96.90;;;;;;5041880;28;19940;-78
2023/02/03 10:23:11;;;;;;;27.35;11.20;;;11.20;96.80;;;;;;5042167;28;20022;-76
2023/02/03 10:25:43;;;;;;;32.85;15.43;;;11.20;96.90;;;;;;5044853;28;20108;-77
2023/02/03 10:28:15;;;;;;;16.02;4.30;;;11.20;96.90;;;;;;5053367;28;20033;-78
2023/02/03 10:30:57;;;;;;;36.63;17.75;;;11.20;96.80;;;;;;5057779;28;20021;-78
2023/02/03 10:33:28;;;;;;;101.72;51.47;;;11.30;96.80;;;;;;5041194;28;20116;-77
2023/02/03 10:36:18;;;;;;;25.50;12.35;;;11.30;96.80;;;;;;5051840;28;20017;-78
2023/02/03 10:39:00;;;;;;;32.22;16.50;;;11.40;96.70;;;;;;5042820;28;20505;-76
2023/02/03 10:41:29;;;;;;;12.45;3.25;;;11.40;96.60;;;;;;5045260;28;20029;-77
2023/02/03 10:43:56;;;;;;;15.43;3.97;;;11.40;96.60;;;;;;5039572;28;20052;-75
2023/02/03 10:46:36;;;;;;;12.65;2.90;;;11.40;96.60;;;;;;5055725;28;20493;-77
2023/02/03 10:49:02;;;;;;;11.13;2.97;;;11.40;96.60;;;;;;5051142;28;20029;-77
2023/02/03 10:51:50;;;;;;;10.85;2.30;;;11.40;96.50;;;;;;5046060;28;20082;-76
2023/02/03 10:54:30;;;;;;;9.82;3.03;;;11.40;96.40;;;;;;5057060;28;20023;-77
2023/02/03 10:57:12;;;;;;;11.07;3.05;;;11.50;96.50;;;;;;5042269;28;20209;-78
2023/02/03 10:59:42;;;;;;;10.60;2.53;;;11.40;96.50;;;;;;5043026;28;20518;-78
2023/02/03 11:02:28;;;;;;;8.13;2.17;;;11.40;96.40;;;;;;5044537;28;20021;-76
2023/02/03 11:05:15;;;;;;;16.00;3.40;;;11.40;96.40;;;;;;5038534;28;20017;-78
2023/02/03 11:07:41;;;;;;;12.55;2.88;;;11.40;96.50;;;;;;5047785;28;20663;-76
2023/02/03 11:10:37;;;;;;;8.73;2.45;;;11.40;96.40;;;;;;5051809;28;20025;-77
2023/02/03 11:13:20;;;;;;;8.32;2.58;;;11.50;96.40;;;;;;5049175;28;20029;-75
2023/02/03 11:15:50;;;;;;;9.35;2.15;;;11.50;96.20;;;;;;5048310;28;20025;-79
2023/02/03 11:18:37;;;;;;;7.22;2.00;;;11.50;96.30;;;;;;5042598;28;20092;-76
2023/02/03 11:21:28;;;;;;;14.80;3.05;;;11.60;96.20;;;;;;5030841;28;20085;-76
2023/02/03 11:24:00;;;;;;;10.02;2.30;;;11.60;96.30;;;;;;5027763;28;20053;-78
2023/02/03 11:26:48;;;;;;;54.72;20.35;;;11.50;96.20;;;;;;5030620;28;20056;-78
2023/02/03 11:29:39;;;;;;;10.65;2.80;;;11.60;96.30;;;;;;5045586;28;20140;-78
2023/02/03 11:32:32;;;;;;;16.92;4.25;;;11.60;96.20;;;;;;5049036;28;20036;-78
2023/02/03 11:35:02;;;;;;;13.48;3.20;;;11.60;96.20;;;;;;5038495;28;20032;-80
2023/02/03 11:37:40;;;;;;;14.90;2.75;;;11.60;96.10;;;;;;5051847;28;20017;-77
2023/02/03 11:40:07;;;;;;;12.85;2.60;;;11.70;96.10;;;;;;5046783;28;20150;-77
2023/02/03 11:42:35;;;;;;;16.67;5.28;;;11.70;96.00;;;;;;5049350;28;20056;-78
2023/02/03 11:45:25;;;;;;;9.23;2.88;;;11.80;96.00;;;;;;5043840;28;20116;-80
2023/02/03 11:48:01;;;;;;;12.65;4.32;;;11.80;95.90;;;;;;5037584;28;20150;-76
2023/02/03 11:50:37;;;;;;;8.45;2.70;;;11.90;95.80;;;;;;5051647;28;20025;-76
2023/02/03 11:53:33;;;;;;;13.68;2.70;;;11.90;95.80;;;;;;5052053;28;20035;-75
2023/02/03 11:56:33;;;;;;;10.32;3.58;;;11.90;95.80;;;;;;5051689;28;20064;-75
2023/02/03 11:59:28;;;;;;;10.85;2.75;;;11.90;95.70;;;;;;5050815;28;20025;-76
2023/02/03 12:02:32;;;;;;;10.13;2.22;;;11.80;95.60;;;;;;5043063;28;20048;-77
2023/02/03 12:05:01;;;;;;;11.38;2.65;;;11.90;95.70;;;;;;5046248;28;20071;-75
2023/02/03 12:07:45;;;;;;;6.78;1.75;;;11.90;95.70;;;;;;5045500;28;20029;-75
2023/02/03 12:10:26;;;;;;;14.60;2.72;;;11.90;95.60;;;;;;5045665;28;20075;-76
2023/02/03 12:13:12;;;;;;;12.68;2.45;;;12.00;95.50;;;;;;5041440;28;20032;-75
2023/02/03 12:15:50;;;;;;;7.78;1.90;;;12.00;95.40;;;;;;5048983;28;20056;-76
2023/02/03 12:18:36;;;;;;;11.50;2.58;;;12.00;95.40;;;;;;5052475;28;20187;-75
2023/02/03 12:21:34;;;;;;;7.63;2.55;;;12.10;95.40;;;;;;5049121;28;20417;-75
2023/02/03 12:24:07;;;;;;;13.05;2.97;;;12.00;95.20;;;;;;5049751;28;20100;-75
2023/02/03 12:26:36;;;;;;;12.43;2.70;;;12.00;95.30;;;;;;5049746;28;20551;-75
2023/02/03 12:29:21;;;;;;;12.70;2.35;;;12.00;95.40;;;;;;5050894;28;20174;-75
2023/02/03 12:32:24;;;;;;;12.23;2.88;;;12.00;95.70;;;;;;5050983;28;20487;-75
2023/02/03 12:35:01;;;;;;;10.93;2.55;;;11.90;96.40;;;;;;5039640;28;20033;-74
2023/02/03 12:38:00;;;;;;;10.88;3.13;;;11.80;96.70;;;;;;5054118;28;20036;-75
2023/02/03 12:40:38;;;;;;;8.60;2.50;;;11.80;97.10;;;;;;5053894;28;20075;-75
2023/02/03 12:43:29;;;;;;;13.45;3.45;;;11.70;97.50;;;;;;5044210;28;20104;-73
2023/02/03 12:46:21;;;;;;;14.48;3.50;;;11.70;97.50;;;;;;5048086;28;20020;-74
2023/02/03 12:48:55;;;;;;;19.00;3.85;;;11.60;97.90;;;;;;5037725;28;20025;-73
2023/02/03 12:51:34;;;;;;;14.18;2.78;;;11.50;98.20;;;;;;5050101;28;20025;-73
2023/02/03 12:54:26;;;;;;;12.50;3.00;;;11.40;98.70;;;;;;5048258;28;20020;-74
2023/02/03 12:56:56;;;;;;;19.42;4.25;;;11.30;98.60;;;;;;5049128;28;20029;-73
2023/02/03 12:59:24;;;;;;;14.25;2.90;;;11.20;98.30;;;;;;5049561;28;20071;-73
2023/02/03 13:02:13;;;;;;;12.88;4.05;;;11.20;98.40;;;;;;5050634;28;20120;-73
2023/02/03 13:04:49;;;;;;;18.05;4.03;;;11.10;98.30;;;;;;5050142;28;20611;-74